Terminal Aerodrome Forecast
Issued by NWS

Home | Current Version | Previous Version | Text Only | Print | Product List | Glossary On
Versions: 1 2 3 4 5 6 7 8 9 10 11 12 13
000
FTUS45 KVEF 241728
TAFVGT
TAF
KVGT 241728Z 2418/2518 01008KT P6SM SKC
     FM241900 05008KT P6SM SKC
     FM250400 34009KT P6SM SKC
     FM251200 35012KT P6SM SKC=

USA.gov is the U.S. government's official web portal to all federal, state and local government web resources and services.